createdAt,value
2024-05-09T00:01:26.300Z,6.90
2024-05-09T00:03:56.359Z,6.05
2024-05-09T00:06:29.114Z,5.63
2024-05-09T00:08:59.350Z,5.45
2024-05-09T00:11:29.543Z,5.85
2024-05-09T00:13:59.677Z,5.72
2024-05-09T00:16:29.728Z,5.70
2024-05-09T00:18:59.886Z,6.03
2024-05-09T00:21:32.762Z,5.80
2024-05-09T00:24:02.826Z,6.28
2024-05-09T00:26:32.991Z,5.32
2024-05-09T00:29:03.060Z,5.28
2024-05-09T00:31:33.253Z,5.22
2024-05-09T00:34:03.469Z,5.07
2024-05-09T00:36:36.389Z,5.63
2024-05-09T00:39:06.569Z,5.88
2024-05-09T00:41:36.758Z,4.10
2024-05-09T00:44:08.371Z,5.10
2024-05-09T00:46:38.757Z,5.05
2024-05-09T00:49:09.564Z,5.22
2024-05-09T00:51:43.707Z,5.82
2024-05-09T00:54:13.862Z,5.18
2024-05-09T00:56:45.034Z,5.50
2024-05-09T00:59:17.755Z,5.20
2024-05-09T01:01:49.192Z,4.65
2024-05-09T01:04:19.807Z,4.43
2024-05-09T01:06:53.484Z,4.78
2024-05-09T01:09:23.810Z,5.47
2024-05-09T01:11:53.759Z,4.80
2024-05-09T01:14:23.842Z,5.18
2024-05-09T01:16:53.822Z,4.90
2024-05-09T01:19:33.105Z,4.90
2024-05-09T01:22:07.978Z,6.82
2024-05-09T01:27:10.553Z,5.90
2024-05-09T01:29:40.477Z,5.18
2024-05-09T01:32:10.742Z,5.35
2024-05-09T01:34:40.819Z,5.10
2024-05-09T01:37:10.829Z,5.40
2024-05-09T01:39:43.538Z,5.88
2024-05-09T01:42:13.536Z,6.70
2024-05-09T01:44:43.897Z,7.38
2024-05-09T01:47:13.961Z,6.20
2024-05-09T01:49:44.213Z,7.05
2024-05-09T01:52:14.308Z,5.35
2024-05-09T01:54:47.501Z,5.75
2024-05-09T01:57:17.459Z,4.70
2024-05-09T01:59:47.334Z,5.47
2024-05-09T02:02:17.559Z,5.38
2024-05-09T02:04:50.225Z,5.57
2024-05-09T02:07:20.700Z,8.15
2024-05-09T02:09:54.768Z,5.75
2024-05-09T02:12:25.001Z,4.77
2024-05-09T02:14:55.202Z,5.25
2024-05-09T02:17:25.526Z,6.47
2024-05-09T02:19:55.805Z,4.38
2024-05-09T02:22:26.071Z,5.55
2024-05-09T02:24:58.751Z,5.55
2024-05-09T02:27:28.810Z,5.35
2024-05-09T02:29:58.758Z,4.88
2024-05-09T02:32:28.828Z,4.72
2024-05-09T02:34:56.740Z,4.90
2024-05-09T02:37:26.745Z,5.85
2024-05-09T02:39:56.942Z,4.95
2024-05-09T02:42:27.016Z,4.82
2024-05-09T02:44:54.505Z,5.40
2024-05-09T02:47:24.779Z,5.22
2024-05-09T02:49:52.335Z,4.75
2024-05-09T02:52:22.554Z,6.13
2024-05-09T02:54:50.025Z,5.18
2024-05-09T02:57:22.621Z,6.53
2024-05-09T02:59:49.957Z,5.95
2024-05-09T03:02:19.985Z,6.63
2024-05-09T03:04:47.649Z,6.15
2024-05-09T03:07:20.067Z,7.30
2024-05-09T03:09:48.061Z,8.07
2024-05-09T03:12:18.063Z,6.40
2024-05-09T03:14:50.209Z,7.07
2024-05-09T03:17:20.426Z,7.88
2024-05-09T03:19:47.929Z,7.70
2024-05-09T03:22:17.952Z,8.82
2024-05-09T03:24:45.373Z,8.38
2024-05-09T03:27:15.578Z,8.82
2024-05-09T03:29:42.995Z,9.30
2024-05-09T03:32:15.871Z,9.88
2024-05-09T03:34:43.282Z,8.57
2024-05-09T03:37:13.231Z,9.30
2024-05-09T03:39:43.496Z,10.50
2024-05-09T03:42:13.676Z,9.88
2024-05-09T03:44:43.728Z,9.80
2024-05-09T03:47:14.062Z,9.40
2024-05-09T03:49:44.396Z,9.10
2024-05-09T03:52:11.669Z,11.35
2024-05-09T03:54:48.256Z,11.02
2024-05-09T03:57:15.524Z,10.18
2024-05-09T03:59:45.548Z,10.43
2024-05-09T04:02:15.546Z,9.85
2024-05-09T04:04:46.077Z,9.55
2024-05-09T04:07:13.948Z,10.20
2024-05-09T04:09:43.971Z,10.13
2024-05-09T04:12:11.548Z,10.77
2024-05-09T04:14:43.103Z,11.50
2024-05-09T04:17:10.460Z,11.25
2024-05-09T04:19:43.136Z,10.63
2024-05-09T04:22:10.671Z,10.20
2024-05-09T04:24:40.545Z,9.98
2024-05-09T04:27:07.845Z,9.55
2024-05-09T04:29:37.993Z,10.32
2024-05-09T04:32:06.268Z,9.30
2024-05-09T04:34:38.830Z,8.02
2024-05-09T04:37:11.420Z,7.88
2024-05-09T04:39:38.922Z,8.35
2024-05-09T04:42:09.087Z,5.97
2024-05-09T04:44:36.487Z,6.35
2024-05-09T04:47:06.713Z,6.68
2024-05-09T04:49:34.282Z,6.93
2024-05-09T04:52:04.496Z,5.57
2024-05-09T04:54:36.660Z,6.13
2024-05-09T04:57:07.310Z,5.50
2024-05-09T04:59:34.795Z,5.45
2024-05-09T05:02:05.088Z,6.55
2024-05-09T05:04:32.642Z,5.82
2024-05-09T05:07:03.083Z,5.45
2024-05-09T05:09:30.880Z,5.35
2024-05-09T05:12:23.643Z,5.70
2024-05-09T05:14:51.397Z,5.20
2024-05-09T05:17:21.542Z,5.15
2024-05-09T05:19:49.287Z,4.88
2024-05-09T05:22:19.465Z,5.00
2024-05-09T05:24:46.755Z,4.70
2024-05-09T05:27:19.276Z,4.93
2024-05-09T05:29:47.598Z,4.82
2024-05-09T05:32:17.665Z,4.72
2024-05-09T05:34:45.262Z,4.72
2024-05-09T05:37:15.336Z,4.45
2024-05-09T05:39:42.676Z,4.57
2024-05-09T05:42:12.545Z,4.47
2024-05-09T05:44:42.460Z,4.78
2024-05-09T05:47:12.753Z,3.90
2024-05-09T05:49:40.357Z,4.40
2024-05-09T05:52:10.397Z,4.07
2024-05-09T05:54:37.702Z,4.35
2024-05-09T05:57:07.891Z,3.95
2024-05-09T05:59:35.221Z,4.43
2024-05-09T06:02:09.593Z,4.25
2024-05-09T06:04:37.245Z,4.13
2024-05-09T06:07:08.063Z,4.22
2024-05-09T06:09:35.655Z,4.32
2024-05-09T06:12:06.126Z,4.80
2024-05-09T06:14:33.695Z,3.85
2024-05-09T06:17:03.679Z,3.90
2024-05-09T06:19:33.855Z,4.78
2024-05-09T06:22:04.456Z,4.78
2024-05-09T06:24:31.802Z,3.97
2024-05-09T06:27:03.712Z,4.03
2024-05-09T06:29:31.276Z,3.80
2024-05-09T06:32:01.665Z,3.20
2024-05-09T06:34:29.901Z,3.30
2024-05-09T06:37:02.545Z,3.13
2024-05-09T06:39:30.055Z,2.95
2024-05-09T06:42:00.161Z,3.70
2024-05-09T06:44:27.779Z,3.25
2024-05-09T06:46:59.966Z,3.95
2024-05-09T06:49:30.152Z,3.90
2024-05-09T06:52:02.939Z,3.40
2024-05-09T06:54:31.143Z,3.65
2024-05-09T06:57:01.190Z,3.53
2024-05-09T06:59:29.131Z,3.13
2024-05-09T07:01:59.529Z,3.33
2024-05-09T07:04:26.925Z,2.53
2024-05-09T07:06:57.073Z,2.85
2024-05-09T07:09:29.693Z,3.15
2024-05-09T07:11:57.102Z,2.60
2024-05-09T07:14:27.941Z,3.10
2024-05-09T07:16:55.337Z,2.40
2024-05-09T07:19:27.651Z,3.00
2024-05-09T07:21:54.989Z,2.78
2024-05-09T07:24:25.132Z,2.75
2024-05-09T07:26:55.055Z,2.17
2024-05-09T07:29:24.943Z,2.17
2024-05-09T07:31:52.340Z,2.40
2024-05-09T07:34:22.764Z,2.22
2024-05-09T07:36:50.935Z,2.38
2024-05-09T07:39:22.782Z,2.10
2024-05-09T07:41:50.302Z,2.00
2024-05-09T07:44:22.874Z,2.00
2024-05-09T07:47:52.284Z,2.20
2024-05-09T07:53:29.246Z,2.28
2024-05-09T07:55:00.623Z,2.13
2024-05-09T07:57:28.375Z,1.70
2024-05-09T08:00:01.109Z,1.52
2024-05-09T08:02:28.787Z,1.70
2024-05-09T08:04:58.900Z,1.42
2024-05-09T08:07:26.714Z,2.22
2024-05-09T08:09:56.788Z,1.70
2024-05-09T08:12:24.201Z,1.92
2024-05-09T08:14:55.340Z,1.65
2024-05-09T08:17:25.870Z,1.35
2024-05-09T08:19:56.198Z,1.92
2024-05-09T08:22:23.405Z,1.60
2024-05-09T08:24:54.179Z,1.40
2024-05-09T08:27:21.599Z,1.30
2024-05-09T08:29:53.955Z,1.52
2024-05-09T08:32:21.321Z,1.42
2024-05-09T08:34:54.188Z,1.50
2024-05-09T08:37:24.675Z,1.40
2024-05-09T08:39:57.898Z,1.63
2024-05-09T08:42:27.420Z,1.20
2024-05-09T08:45:00.609Z,1.17
2024-05-09T08:47:31.873Z,1.10
2024-05-09T08:50:10.941Z,1.23
2024-05-09T08:52:41.670Z,1.10
2024-05-09T08:55:11.934Z,1.13
2024-05-09T08:57:40.904Z,1.00
2024-05-09T09:00:15.197Z,0.98
2024-05-09T09:02:51.043Z,0.95
2024-05-09T09:05:28.539Z,0.90
2024-05-09T09:07:55.859Z,1.13
2024-05-09T09:10:31.908Z,1.20
2024-05-09T09:13:04.465Z,1.20
2024-05-09T09:15:35.162Z,1.02
2024-05-09T09:18:03.272Z,1.20
2024-05-09T09:20:37.098Z,1.50
2024-05-09T09:23:05.124Z,1.30
2024-05-09T09:25:35.043Z,1.05
2024-05-09T09:28:02.654Z,1.48
2024-05-09T09:30:37.310Z,1.08
2024-05-09T09:33:06.443Z,0.82
2024-05-09T09:35:41.870Z,0.50
2024-05-09T09:38:10.794Z,1.17
2024-05-09T09:40:48.343Z,1.27
2024-05-09T09:43:20.220Z,0.77
2024-05-09T09:45:55.244Z,1.20
2024-05-09T09:48:23.601Z,1.50
2024-05-09T09:50:58.057Z,1.45
2024-05-09T09:53:25.822Z,0.93
2024-05-09T09:55:57.777Z,1.05
2024-05-09T09:58:25.730Z,1.00
2024-05-09T10:00:55.942Z,0.80
2024-05-09T10:03:23.526Z,1.13
2024-05-09T10:05:56.969Z,0.90
2024-05-09T10:08:24.573Z,1.08
2024-05-09T10:10:54.717Z,0.93
2024-05-09T10:13:33.735Z,1.00
2024-05-09T10:16:11.287Z,1.08
2024-05-09T10:18:40.850Z,1.00
2024-05-09T10:21:23.715Z,0.77
2024-05-09T10:23:58.968Z,1.50
2024-05-09T10:26:35.951Z,0.98
2024-05-09T10:29:12.669Z,1.02
2024-05-09T10:31:45.931Z,0.95
2024-05-09T10:34:18.562Z,1.15
2024-05-09T10:36:55.810Z,0.90
2024-05-09T10:39:25.031Z,1.08
2024-05-09T10:41:55.137Z,1.17
2024-05-09T10:44:22.501Z,1.00
2024-05-09T10:46:54.766Z,1.20
2024-05-09T10:49:23.034Z,1.20
2024-05-09T10:51:56.151Z,1.02
2024-05-09T10:54:23.550Z,0.95
2024-05-09T10:56:59.527Z,1.10
2024-05-09T10:59:33.444Z,1.00
2024-05-09T11:04:34.912Z,0.77
2024-05-09T11:07:11.268Z,1.20
2024-05-09T11:09:39.647Z,1.05
2024-05-09T11:12:10.732Z,1.05
2024-05-09T11:14:38.527Z,1.25
2024-05-09T11:17:09.953Z,1.23
2024-05-09T11:19:40.104Z,1.20
2024-05-09T11:22:12.993Z,1.25
2024-05-09T11:24:41.103Z,1.23
2024-05-09T11:27:11.077Z,0.85
2024-05-09T11:29:39.375Z,0.82
2024-05-09T11:32:11.548Z,1.10
2024-05-09T11:34:39.340Z,1.10
2024-05-09T11:37:13.593Z,1.10
2024-05-09T11:39:41.502Z,1.10
2024-05-09T11:42:11.890Z,1.00
2024-05-09T11:44:39.282Z,1.08
2024-05-09T11:47:09.337Z,1.20
2024-05-09T11:49:36.872Z,1.30
2024-05-09T11:52:07.518Z,1.35
2024-05-09T11:54:37.613Z,1.02
2024-05-09T11:57:09.585Z,0.90
2024-05-09T11:59:39.690Z,1.02
2024-05-09T12:02:10.332Z,1.00
2024-05-09T12:04:37.926Z,0.88
2024-05-09T12:07:09.141Z,1.08
2024-05-09T12:09:41.837Z,1.08
2024-05-09T12:12:11.790Z,1.13
2024-05-09T12:14:40.283Z,0.90
2024-05-09T12:17:10.287Z,0.90
2024-05-09T12:19:38.116Z,0.95
2024-05-09T12:22:08.618Z,0.95
2024-05-09T12:24:36.321Z,1.20
2024-05-09T12:27:09.020Z,0.82
2024-05-09T12:29:38.648Z,0.93
2024-05-09T12:32:11.343Z,1.10
2024-05-09T12:34:38.952Z,1.02
2024-05-09T12:37:08.992Z,1.35
2024-05-09T12:39:36.437Z,1.20
2024-05-09T12:42:10.912Z,0.98
2024-05-09T12:44:40.018Z,1.10
2024-05-09T12:47:10.265Z,1.02
2024-05-09T12:49:37.788Z,1.00
2024-05-09T12:52:08.666Z,1.08
2024-05-09T12:54:36.184Z,1.38
2024-05-09T12:57:08.984Z,0.80
2024-05-09T12:59:36.675Z,1.27
2024-05-09T13:02:07.344Z,1.20
2024-05-09T13:04:35.087Z,0.80
2024-05-09T13:07:07.729Z,0.77
2024-05-09T13:09:35.744Z,1.10
2024-05-09T13:12:08.764Z,0.98
2024-05-09T13:14:36.180Z,1.50
2024-05-09T13:17:06.264Z,0.95
2024-05-09T13:19:33.789Z,1.00
2024-05-09T13:22:03.764Z,1.67
2024-05-09T13:24:31.206Z,1.05
2024-05-09T13:27:01.502Z,0.95
2024-05-09T13:29:31.774Z,0.75
2024-05-09T13:32:01.829Z,0.85
2024-05-09T13:34:29.367Z,0.82
2024-05-09T13:36:59.709Z,0.98
2024-05-09T13:39:27.041Z,1.73
2024-05-09T13:42:34.314Z,0.80
2024-05-09T13:45:04.644Z,0.82
2024-05-09T13:47:35.059Z,0.93
2024-05-09T13:50:05.190Z,0.77
2024-05-09T13:52:35.348Z,0.98
2024-05-09T13:55:02.750Z,1.02
2024-05-09T13:57:33.393Z,0.75
2024-05-09T14:00:07.017Z,0.98
2024-05-09T14:02:41.745Z,0.73
2024-05-09T14:05:12.918Z,0.90
2024-05-09T14:07:44.002Z,1.30
2024-05-09T14:10:19.907Z,0.80
2024-05-09T14:12:56.013Z,0.90
2024-05-09T14:15:26.775Z,0.98
2024-05-09T14:17:57.126Z,1.05
2024-05-09T14:20:30.984Z,1.00
2024-05-09T14:23:02.647Z,1.10
2024-05-09T14:25:32.171Z,0.65
2024-05-09T14:28:02.879Z,0.80
2024-05-09T14:30:37.238Z,0.80
2024-05-09T14:33:09.794Z,0.60
2024-05-09T14:35:38.766Z,1.58
2024-05-09T14:38:10.017Z,1.10
2024-05-09T14:40:42.392Z,0.85
2024-05-09T14:43:16.885Z,0.95
2024-05-09T14:45:47.210Z,1.40
2024-05-09T14:48:19.936Z,0.70
2024-05-09T14:50:48.082Z,0.80
2024-05-09T14:53:20.171Z,0.90
2024-05-09T14:55:49.500Z,0.93
2024-05-09T14:58:20.138Z,1.00
2024-05-09T15:00:51.636Z,1.10
2024-05-09T15:03:22.889Z,1.10
2024-05-09T15:05:51.458Z,1.13
2024-05-09T15:08:22.391Z,0.95
2024-05-09T15:10:50.757Z,1.13
2024-05-09T15:13:21.282Z,1.70
2024-05-09T15:15:51.905Z,1.35
2024-05-09T15:18:22.375Z,0.88
2024-05-09T15:20:49.951Z,2.33
2024-05-09T15:23:19.940Z,2.88
2024-05-09T15:25:47.691Z,1.75
2024-05-09T15:28:20.814Z,2.15
2024-05-09T15:30:50.945Z,1.33
2024-05-09T15:33:21.114Z,0.80
2024-05-09T15:35:48.902Z,1.33
2024-05-09T15:38:19.684Z,1.15
2024-05-09T15:40:47.279Z,1.25
2024-05-09T15:43:17.673Z,0.98
2024-05-09T15:45:49.898Z,1.00
2024-05-09T15:48:22.506Z,1.08
2024-05-09T15:50:50.196Z,0.90
2024-05-09T15:53:20.358Z,0.93
2024-05-09T15:55:47.726Z,0.90
2024-05-09T15:58:20.853Z,1.20
2024-05-09T16:00:50.593Z,1.10
2024-05-09T16:03:25.064Z,0.95
2024-05-09T16:05:52.845Z,1.02
2024-05-09T16:08:23.104Z,0.98
2024-05-09T16:10:51.260Z,1.17
2024-05-09T16:13:22.073Z,1.70
2024-05-09T16:15:52.584Z,1.73
2024-05-09T16:18:25.854Z,1.52
2024-05-09T16:20:59.581Z,1.30
2024-05-09T16:23:29.601Z,1.50
2024-05-09T16:25:57.405Z,1.15
2024-05-09T16:28:27.877Z,1.48
2024-05-09T16:30:55.702Z,2.15
2024-05-09T16:33:28.424Z,1.13
2024-05-09T16:35:56.044Z,1.25
2024-05-09T16:38:26.041Z,3.70
2024-05-09T16:40:53.673Z,0.90
2024-05-09T16:43:24.259Z,1.17
2024-05-09T16:45:52.600Z,1.13
2024-05-09T16:48:22.897Z,1.02
2024-05-09T16:50:52.993Z,1.00
2024-05-09T16:53:23.374Z,1.17
2024-05-09T16:55:50.938Z,1.05
2024-05-09T16:58:24.189Z,0.90
2024-05-09T17:00:51.807Z,0.90
2024-05-09T17:03:22.066Z,1.00
2024-05-09T17:05:52.428Z,1.55
2024-05-09T17:08:22.777Z,0.90
2024-05-09T17:10:50.330Z,0.80
2024-05-09T17:13:21.183Z,1.10
2024-05-09T17:15:51.934Z,1.00
2024-05-09T17:18:19.649Z,1.15
2024-05-09T17:20:50.303Z,1.05
2024-05-09T17:23:20.501Z,1.08
2024-05-09T17:25:50.792Z,1.10
2024-05-09T17:28:18.695Z,1.33
2024-05-09T17:30:49.133Z,1.02
2024-05-09T17:33:16.611Z,1.10
2024-05-09T17:35:50.399Z,1.00
2024-05-09T17:38:22.945Z,1.77
2024-05-09T17:40:53.669Z,1.75
2024-05-09T17:43:21.395Z,1.40
2024-05-09T17:45:51.716Z,1.33
2024-05-09T17:48:19.330Z,1.20
2024-05-09T17:50:51.452Z,1.15
2024-05-09T17:53:21.623Z,1.20
2024-05-09T17:55:53.922Z,1.25
2024-05-09T17:58:21.675Z,1.90
2024-05-09T18:00:52.316Z,2.20
2024-05-09T18:03:19.995Z,1.65
2024-05-09T18:05:50.209Z,2.10
2024-05-09T18:08:20.347Z,2.83
2024-05-09T18:10:52.112Z,1.88
2024-05-09T18:13:23.871Z,3.00
2024-05-09T18:15:53.966Z,2.80
2024-05-09T18:18:21.550Z,2.10
2024-05-09T18:20:52.642Z,1.80
2024-05-09T18:23:23.239Z,1.60
2024-05-09T18:25:54.885Z,1.52
2024-05-09T18:28:23.559Z,1.30
2024-05-09T18:30:53.759Z,1.45
2024-05-09T18:33:21.453Z,1.20
2024-05-09T18:35:54.746Z,1.10
2024-05-09T18:38:26.931Z,1.38
2024-05-09T18:40:57.532Z,1.40
2024-05-09T18:43:31.120Z,1.50
2024-05-09T18:46:06.865Z,1.50
2024-05-09T18:48:34.889Z,1.30
2024-05-09T18:51:05.535Z,1.42
2024-05-09T18:53:35.774Z,1.20
2024-05-09T18:56:05.833Z,1.17
2024-05-09T18:58:33.677Z,1.73
2024-05-09T19:01:04.438Z,1.35
2024-05-09T19:03:32.253Z,1.35
2024-05-09T19:06:02.551Z,1.48
2024-05-09T19:08:30.058Z,1.38
2024-05-09T19:11:03.444Z,1.40
2024-05-09T19:13:31.242Z,1.55
2024-05-09T19:16:01.473Z,1.95
2024-05-09T19:18:30.864Z,2.00
2024-05-09T19:21:00.974Z,2.10
2024-05-09T19:23:29.005Z,1.88
2024-05-09T19:25:59.347Z,1.60
2024-05-09T19:28:31.233Z,1.73
2024-05-09T19:31:01.726Z,4.03
2024-05-09T19:33:29.390Z,1.40
2024-05-09T19:35:59.566Z,1.83
2024-05-09T19:38:27.050Z,1.77
2024-05-09T19:40:57.301Z,2.17
2024-05-09T19:43:24.959Z,3.28
2024-05-09T19:45:57.953Z,5.20
2024-05-09T19:48:25.529Z,3.42
2024-05-09T19:50:55.645Z,5.95
2024-05-09T19:53:23.916Z,4.80
2024-05-09T19:55:54.037Z,19.88
2024-05-09T19:58:21.656Z,32.33
2024-05-09T20:00:51.883Z,7.63
2024-05-09T20:03:21.974Z,5.97
2024-05-09T20:05:52.602Z,12.93
2024-05-09T20:08:20.268Z,9.82
2024-05-09T20:10:50.320Z,3.78
2024-05-09T20:13:17.721Z,7.88
2024-05-09T20:15:51.038Z,6.93
2024-05-09T20:18:24.096Z,3.65
2024-05-09T20:20:53.923Z,3.05
2024-05-09T20:23:24.437Z,3.42
2024-05-09T20:25:52.911Z,4.13
2024-05-09T20:28:22.988Z,4.28
2024-05-09T20:30:50.660Z,2.97
2024-05-09T20:33:20.911Z,2.50
2024-05-09T20:35:51.560Z,3.30
2024-05-09T20:38:21.638Z,2.50
2024-05-09T20:40:52.009Z,4.05
2024-05-09T20:43:22.212Z,2.63
2024-05-09T20:45:49.766Z,2.80
2024-05-09T20:48:19.887Z,6.53
2024-05-09T20:50:48.582Z,3.20
2024-05-09T20:53:21.403Z,4.28
2024-05-09T20:55:51.135Z,2.10
2024-05-09T20:58:21.450Z,2.28
2024-05-09T21:00:49.600Z,2.95
2024-05-09T21:03:19.935Z,6.72
2024-05-09T21:05:48.388Z,2.58
2024-05-09T21:08:22.753Z,3.13
2024-05-09T21:10:50.850Z,7.57
2024-05-09T21:13:21.093Z,2.30
2024-05-09T21:15:49.007Z,4.15
2024-05-09T21:18:19.208Z,2.65
2024-05-09T21:20:46.590Z,2.25
2024-05-09T21:23:17.109Z,15.68
2024-05-09T21:25:47.398Z,2.63
2024-05-09T21:28:20.474Z,30.58
2024-05-09T21:30:48.874Z,3.25
2024-05-09T21:33:19.269Z,6.85
2024-05-09T21:35:46.971Z,9.63
2024-05-09T21:38:18.856Z,4.10
2024-05-09T21:40:49.449Z,3.30
2024-05-09T21:43:19.789Z,4.38
2024-05-09T21:45:47.388Z,5.53
2024-05-09T21:48:19.691Z,3.60
2024-05-09T21:50:48.970Z,2.80
2024-05-09T21:53:19.182Z,2.33
2024-05-09T21:55:50.264Z,4.47
2024-05-09T21:58:20.390Z,6.72
2024-05-09T22:00:48.180Z,8.00
2024-05-09T22:03:18.919Z,7.97
2024-05-09T22:05:46.566Z,2.85
2024-05-09T22:08:16.833Z,3.28
2024-05-09T22:10:45.216Z,6.15
2024-05-09T22:13:23.531Z,2.28
2024-05-09T22:15:51.313Z,2.65
2024-05-09T22:18:21.531Z,2.60
2024-05-09T22:20:49.232Z,3.00
2024-05-09T22:23:19.423Z,2.65
2024-05-09T22:25:46.765Z,2.70
2024-05-09T22:28:20.525Z,2.50
2024-05-09T22:30:53.124Z,2.67
2024-05-09T22:33:26.349Z,3.20
2024-05-09T22:35:54.012Z,2.70
2024-05-09T22:38:24.189Z,2.42
2024-05-09T22:40:52.325Z,2.75
2024-05-09T22:43:25.542Z,2.50
2024-05-09T22:45:54.583Z,2.83
2024-05-09T22:48:25.707Z,2.53
2024-05-09T22:50:54.534Z,2.25
2024-05-09T22:53:27.302Z,2.05
2024-05-09T22:55:54.670Z,2.53
2024-05-09T22:58:27.543Z,2.65
2024-05-09T23:00:55.196Z,2.67
2024-05-09T23:03:25.685Z,2.88
2024-05-09T23:05:53.331Z,2.65
2024-05-09T23:08:23.325Z,2.47
2024-05-09T23:10:51.261Z,2.65
2024-05-09T23:13:21.464Z,2.28
2024-05-09T23:15:51.694Z,2.95
2024-05-09T23:18:21.995Z,2.80
2024-05-09T23:20:49.773Z,3.00
2024-05-09T23:23:19.919Z,2.83
2024-05-09T23:25:47.569Z,2.53
2024-05-09T23:28:19.798Z,2.60
2024-05-09T23:30:47.308Z,2.95
2024-05-09T23:33:20.200Z,2.95
2024-05-09T23:35:47.699Z,3.00
2024-05-09T23:38:24.062Z,3.10
2024-05-09T23:40:51.618Z,3.38
2024-05-09T23:43:22.284Z,2.97
2024-05-09T23:45:49.895Z,3.00
2024-05-09T23:48:22.888Z,3.15
2024-05-09T23:50:50.435Z,3.20
2024-05-09T23:53:20.568Z,3.53
2024-05-09T23:55:48.130Z,3.15
2024-05-09T23:58:20.896Z,3.00
